< < Back
Terminal Aerodrome Forecast


Current Version              Previous Versions:   1  2  3  4  5  6  7  8  9  

Terminal Aerodrome Forecast

752
FTUS42 KJAX 300000 AAA
TAFJAX
TAF AMD
KJAX 300053Z 3001/3024 VRB04KT 6SM -RA SCT015 OVC025
      TEMPO 3001/3005 3SM RA BR OVC015
     FM300500 36004KT 5SM BR VCSH SCT007 OVC015
     FM300900 34004KT 3SM BR VCSH OVC005
     FM301500 02006KT P6SM OVC015
     FM301800 04008KT P6SM BKN025=



Latest METAR

155
SAUS80 KWBC 301200
MTRJAX
METAR KJAX 301156Z 34007KT 2 1/2SM BR OVC005 22/22 A2986 RMK AO2 SLP111
70208 T02170217 10228 20217 53015


USA.gov is the U.S. government's official web portal to all federal, state and local government web resources and services.